Time;durP1;ratioP1;P1;durP2;ratioP2;P2;SDS_P1;SDS_P2;PMS_P1;PMS_P2;Temp;Humidity;BMP_temperature;BMP_pressure;BME280_temperature;BME280_humidity;BME280_pressure;Samples;Min_cycle;Max_cycle;Signal;HPM_P1;HPM_P2
2023/04/25 00:02:09;;;;;;;;;6.00;5.00;;;;;13.47;64.55;100546.09;5052479;28;46206;-60
2023/04/25 00:04:35;;;;;;;;;6.50;5.50;;;;;13.29;62.11;100534.03;5053657;28;45334;-59
2023/04/25 00:07:03;;;;;;;;;3.25;3.25;;;;;13.11;64.63;100528.56;5053832;28;45433;-60
2023/04/25 00:09:28;;;;;;;;;3.60;3.60;;;;;13.23;64.82;100534.97;5054277;28;45413;-60
2023/04/25 00:11:54;;;;;;;;;3.75;3.75;;;;;13.31;65.24;100536.56;5053369;28;45760;-59
2023/04/25 00:14:19;;;;;;;;;4.00;4.00;;;;;13.36;64.63;100542.22;5053859;28;45360;-60
2023/04/25 00:16:45;;;;;;;;;6.75;5.50;;;;;13.41;65.30;100536.00;5053865;28;45436;-60
2023/04/25 00:19:10;;;;;;;;;3.75;3.75;;;;;13.40;65.64;100534.31;5053863;28;45344;-60
2023/04/25 00:21:40;;;;;;;;;4.75;3.00;;;;;13.40;65.65;100537.06;5086513;27;46060;-60
2023/04/25 00:24:06;;;;;;;;;7.00;6.20;;;;;13.42;64.86;100538.50;5068801;28;45648;-60
2023/04/25 00:26:33;;;;;;;;;9.40;6.20;;;;;13.46;65.38;100540.81;5053714;28;45377;-60
2023/04/25 00:28:59;;;;;;;;;5.00;4.00;;;;;13.37;65.01;100529.25;4974801;28;45221;-59
2023/04/25 00:31:24;;;;;;;;;6.00;6.00;;;;;13.27;64.14;100538.94;4951639;28;46125;-60
2023/04/25 00:33:50;;;;;;;;;20.75;18.50;;;;;13.25;65.51;100535.56;4951748;28;45364;-60
2023/04/25 00:36:16;;;;;;;;;5.50;5.00;;;;;13.29;65.48;100538.72;4951890;28;45500;-60
2023/04/25 00:38:42;;;;;;;;;10.20;9.20;;;;;13.34;66.11;100535.25;4951051;28;45565;-60
2023/04/25 00:41:07;;;;;;;;;8.75;7.75;;;;;13.21;64.74;100528.88;4950365;28;45897;-60
2023/04/25 00:43:33;;;;;;;;;6.50;6.50;;;;;13.28;64.49;100532.34;4951715;28;45305;-60
2023/04/25 00:46:00;;;;;;;;;5.25;4.25;;;;;13.18;64.42;100545.03;4951649;28;45330;-61
2023/04/25 00:48:25;;;;;;;;;9.80;4.40;;;;;13.19;65.10;100547.56;4950817;28;45266;-60
2023/04/25 00:50:53;;;;;;;;;4.75;4.75;;;;;13.22;63.96;100533.28;4949931;28;47489;-60
2023/04/25 00:53:20;;;;;;;;;11.00;7.20;;;;;13.12;64.78;100528.34;4950272;28;45691;-60
2023/04/25 00:55:45;;;;;;;;;6.00;6.00;;;;;13.19;65.04;100532.94;4950183;28;45856;-60
2023/04/25 00:58:11;;;;;;;;;6.00;6.00;;;;;13.24;64.86;100533.88;4949744;28;46026;-61
2023/04/25 01:00:36;;;;;;;;;6.00;6.00;;;;;13.11;66.49;100537.69;4951908;28;46785;-60
2023/04/25 01:03:02;;;;;;;;;6.25;4.00;;;;;13.06;65.12;100537.56;4949999;28;45512;-62
2023/04/25 01:05:28;;;;;;;;;8.50;6.25;;;;;13.07;64.88;100541.16;4949764;28;45481;-60
2023/04/25 01:07:53;;;;;;;;;5.75;4.50;;;;;12.94;62.06;100543.03;4951935;28;45657;-60
2023/04/25 01:10:19;;;;;;;;;5.25;5.25;;;;;12.81;64.97;100540.44;4952965;28;47785;-60
2023/04/25 01:12:44;;;;;;;;;8.50;8.50;;;;;12.88;66.19;100541.19;4954286;28;45338;-60
2023/04/25 01:15:10;;;;;;;;;5.00;5.00;;;;;12.94;64.07;100539.41;4954664;28;45304;-60
2023/04/25 01:17:36;;;;;;;;;8.25;5.75;;;;;12.86;65.79;100533.16;4953001;28;45283;-60
2023/04/25 01:20:05;;;;;;;;;8.25;8.25;;;;;12.90;66.18;100532.72;4952983;28;46443;-60
2023/04/25 01:22:35;;;;;;;;;9.00;6.60;;;;;12.99;66.39;100537.66;4953983;28;45529;-60
2023/04/25 01:25:00;;;;;;;;;8.60;6.40;;;;;13.03;65.55;100538.03;4954564;28;45289;-60
2023/04/25 01:27:26;;;;;;;;;8.75;7.25;;;;;12.76;62.41;100534.78;4953976;28;45277;-60
2023/04/25 01:29:51;;;;;;;;;5.75;5.50;;;;;12.55;64.51;100528.69;5045554;28;45444;-60
2023/04/25 01:32:17;;;;;;;;;9.00;9.00;;;;;12.69;65.65;100530.19;5055017;28;45421;-60
2023/04/25 01:34:43;;;;;;;;;9.00;6.25;;;;;12.81;65.97;100532.19;5037925;28;45414;-60
2023/04/25 01:37:08;;;;;;;;;9.00;7.50;;;;;12.78;66.26;100521.63;5055078;28;45456;-60
2023/04/25 01:39:33;;;;;;;;;6.00;6.00;;;;;12.93;66.14;100527.56;5056152;28;46256;-59
2023/04/25 01:41:59;;;;;;;;;8.00;8.00;;;;;12.84;64.75;100531.69;5056149;28;45396;-59
2023/04/25 01:44:25;;;;;;;;;6.00;5.00;;;;;12.82;65.71;100531.09;5088578;27;45401;-60
2023/04/25 01:46:53;;;;;;;;;9.25;9.00;;;;;12.87;65.52;100532.06;5056113;28;45625;-59
2023/04/25 01:49:19;;;;;;;;;6.80;6.00;;;;;12.92;66.00;100534.13;5054293;28;47430;-60
2023/04/25 01:51:44;;;;;;;;;5.75;5.75;;;;;12.91;65.56;100529.69;5055535;28;45353;-60
2023/04/25 01:54:10;;;;;;;;;8.50;8.50;;;;;12.93;65.25;100534.97;5055985;28;45463;-60
2023/04/25 01:56:37;;;;;;;;;9.75;6.25;;;;;12.93;65.43;100533.06;5000243;28;45404;-60
2023/04/25 01:59:03;;;;;;;;;9.40;8.60;;;;;12.84;66.34;100510.53;4953681;28;46208;-60
2023/04/25 02:01:29;;;;;;;;;8.40;8.00;;;;;12.86;64.43;100519.38;4931681;28;45983;-60
2023/04/25 02:03:54;;;;;;;;;9.75;9.25;;;;;12.90;65.79;100530.78;4953567;28;45391;-59
2023/04/25 02:06:20;;;;;;;;;10.75;8.00;;;;;12.86;66.07;100535.91;4954026;28;45405;-59
2023/04/25 02:08:45;;;;;;;;;10.50;8.50;;;;;12.92;65.37;100533.31;4953009;28;45916;-60
2023/04/25 02:11:11;;;;;;;;;11.75;10.00;;;;;13.01;65.55;100541.00;4953954;28;45513;-59
2023/04/25 02:13:36;;;;;;;;;10.00;10.00;;;;;12.92;64.87;100547.06;4952407;28;45439;-60
2023/04/25 02:16:02;;;;;;;;;9.00;8.25;;;;;12.82;64.58;100534.69;4952303;28;45519;-60
2023/04/25 02:18:27;;;;;;;;;9.00;8.00;;;;;12.73;65.35;100525.91;4953371;28;46967;-60
2023/04/25 02:20:53;;;;;;;;;14.00;10.75;;;;;12.77;64.54;100545.56;4952886;28;45436;-60
2023/04/25 02:23:21;;;;;;;;;6.00;6.00;;;;;12.61;63.53;100547.88;4953717;28;45395;-60
2023/04/25 02:25:47;;;;;;;;;10.00;9.00;;;;;12.59;65.54;100540.91;4953497;28;45635;-60
2023/04/25 02:28:12;;;;;;;;;11.00;8.50;;;;;12.57;65.71;100535.66;4958503;28;45452;-60
2023/04/25 02:30:38;;;;;;;;;9.25;9.00;;;;;12.54;64.22;100529.75;5055607;28;45329;-60
2023/04/25 02:33:03;;;;;;;;;11.00;9.00;;;;;12.61;65.59;100536.84;5054951;28;45319;-60
2023/04/25 02:35:28;;;;;;;;;9.00;8.00;;;;;12.65;65.64;100545.50;5055787;28;45218;-59
2023/04/25 02:37:54;;;;;;;;;10.50;8.75;;;;;12.55;65.36;100526.75;5055014;28;46035;-60
2023/04/25 02:40:20;;;;;;;;;10.00;7.00;;;;;12.57;65.01;100549.41;5055500;28;45440;-59
2023/04/25 02:42:45;;;;;;;;;6.75;6.25;;;;;12.51;65.83;100541.22;5053942;28;45409;-60
2023/04/25 02:45:11;;;;;;;;;11.75;8.25;;;;;12.47;65.28;100538.09;5055440;28;45689;-60
2023/04/25 02:47:36;;;;;;;;;6.25;6.25;;;;;12.66;65.97;100551.84;5055253;28;46271;-59
2023/04/25 02:50:02;;;;;;;;;7.00;7.00;;;;;12.64;64.32;100551.25;5053398;28;45413;-59
2023/04/25 02:52:28;;;;;;;;;7.50;7.50;;;;;12.56;64.77;100555.16;5055129;28;45386;-59
2023/04/25 02:54:53;;;;;;;;;9.25;6.25;;;;;12.53;65.19;100547.34;5054880;28;45223;-60
2023/04/25 02:57:19;;;;;;;;;12.25;9.00;;;;;12.49;65.73;100549.69;5054856;28;46441;-60
2023/04/25 02:59:44;;;;;;;;;15.50;13.00;;;;;12.44;64.13;100561.41;4990335;28;45417;-59
2023/04/25 03:02:10;;;;;;;;;13.00;9.75;;;;;12.54;65.99;100569.13;4953161;28;45211;-59
2023/04/25 03:04:35;;;;;;;;;8.75;7.25;;;;;12.42;64.23;100559.94;4953632;28;45506;-59
2023/04/25 03:07:01;;;;;;;;;9.25;8.00;;;;;12.37;65.59;100544.13;4952755;28;46451;-60
2023/04/25 03:09:26;;;;;;;;;11.00;9.50;;;;;12.50;65.71;100556.06;4953231;28;45366;-59
2023/04/25 03:11:52;;;;;;;;;8.00;8.00;;;;;12.51;65.74;100554.97;4953585;28;45548;-59
2023/04/25 03:14:17;;;;;;;;;9.50;4.50;;;;;12.40;66.13;100554.69;4953168;28;45983;-59
2023/04/25 03:16:43;;;;;;;;;11.00;9.75;;;;;12.48;66.35;100550.78;4952875;28;45562;-59
2023/04/25 03:19:08;;;;;;;;;9.00;8.25;;;;;12.43;63.55;100553.41;4952918;28;45199;-59
2023/04/25 03:21:34;;;;;;;;;11.50;10.00;;;;;12.28;65.75;100529.81;4952109;28;45256;-59
2023/04/25 03:24:00;;;;;;;;;8.75;8.25;;;;;12.41;66.08;100544.50;4953364;28;46066;-59
2023/04/25 03:26:26;;;;;;;;;12.40;9.80;;;;;12.11;64.56;100543.34;4952528;28;46212;-59
2023/04/25 03:28:51;;;;;;;;;8.50;7.25;;;;;12.19;66.18;100554.06;4994335;28;45348;-60
2023/04/25 03:31:17;;;;;;;;;11.25;9.00;;;;;12.28;66.63;100551.84;5086804;27;45473;-60
2023/04/25 03:33:42;;;;;;;;;11.25;11.25;;;;;12.32;66.01;100560.47;5053777;28;45507;-59
2023/04/25 03:36:08;;;;;;;;;11.00;11.00;;;;;12.23;66.33;100546.19;5054232;28;46255;-59
2023/04/25 03:38:33;;;;;;;;;11.50;10.00;;;;;12.25;66.02;100548.69;5052879;28;45404;-59
2023/04/25 03:40:59;;;;;;;;;10.00;8.25;;;;;12.21;65.72;100551.06;5053250;28;45307;-59
2023/04/25 03:43:24;;;;;;;;;12.00;11.50;;;;;12.22;66.19;100555.50;5086613;27;45392;-59
2023/04/25 03:45:50;;;;;;;;;10.50;10.50;;;;;12.20;66.36;100554.91;5052537;28;45876;-59
2023/04/25 03:48:15;;;;;;;;;13.25;10.00;;;;;12.19;66.78;100556.81;5069528;28;45281;-59
2023/04/25 03:50:41;;;;;;;;;16.50;11.75;;;;;12.24;66.45;100561.63;5054328;28;45395;-59
2023/04/25 03:53:06;;;;;;;;;12.50;9.75;;;;;11.97;66.77;100517.88;5054308;28;45263;-59
2023/04/25 03:55:32;;;;;;;;;7.75;7.75;;;;;12.14;65.03;100553.06;5053552;28;46426;-59
2023/04/25 03:57:58;;;;;;;;;16.00;10.50;;;;;12.06;66.20;100548.66;4943924;28;45558;-59
2023/04/25 04:00:24;;;;;;;;;14.00;14.00;;;;;12.17;66.67;100556.19;4976600;28;45424;-60
2023/04/25 04:02:49;;;;;;;;;13.20;11.00;;;;;12.23;67.25;100559.97;4951580;28;45508;-59
2023/04/25 04:05:15;;;;;;;;;13.75;12.50;;;;;12.11;63.88;100553.53;4952430;28;45364;-59
2023/04/25 04:07:42;;;;;;;;;15.50;10.75;;;;;12.09;66.38;100567.50;4950595;28;45745;-59
2023/04/25 04:10:10;;;;;;;;;13.60;11.60;;;;;12.14;66.96;100572.31;4952599;28;45375;-60
2023/04/25 04:12:36;;;;;;;;;8.80;8.80;;;;;12.13;66.79;100559.63;4952239;28;45495;-59
2023/04/25 04:15:05;;;;;;;;;13.80;10.40;;;;;12.04;66.96;100565.44;4951928;28;46004;-60
2023/04/25 04:17:31;;;;;;;;;10.40;8.60;;;;;12.14;66.75;100573.16;4951600;28;45490;-59
2023/04/25 04:19:56;;;;;;;;;17.50;15.00;;;;;12.18;66.85;100559.78;4952273;28;45411;-59
2023/04/25 04:22:22;;;;;;;;;7.25;7.25;;;;;12.07;66.16;100551.19;4983265;27;45566;-60
2023/04/25 04:24:49;;;;;;;;;12.00;11.25;;;;;12.17;66.59;100580.13;4951522;28;45625;-58
2023/04/25 04:27:17;;;;;;;;;9.80;9.80;;;;;12.20;66.81;100579.66;4950615;28;45480;-60
2023/04/25 04:29:42;;;;;;;;;11.20;10.20;;;;;12.25;67.18;100573.47;5006516;28;45363;-60
2023/04/25 04:32:08;;;;;;;;;10.25;9.75;;;;;12.21;66.64;100570.31;5052362;28;45643;-60
2023/04/25 04:34:34;;;;;;;;;14.50;11.00;;;;;12.31;66.06;100589.94;5053232;28;46508;-60
2023/04/25 04:37:00;;;;;;;;;10.60;10.60;;;;;12.29;67.25;100591.22;5053455;28;45526;-59
2023/04/25 04:39:26;;;;;;;;;11.50;10.50;;;;;12.27;66.78;100583.19;5053662;28;45499;-59
2023/04/25 04:41:51;;;;;;;;;13.00;9.75;;;;;12.31;67.20;100600.06;5052432;28;45398;-59
2023/04/25 04:44:16;;;;;;;;;8.75;8.00;;;;;12.26;66.53;100598.00;5055339;28;45467;-59
2023/04/25 04:46:42;;;;;;;;;14.75;11.25;;;;;12.30;66.75;100599.25;5055345;28;45397;-59
2023/04/25 04:49:09;;;;;;;;;10.00;9.00;;;;;12.29;66.42;100607.72;5089903;27;45422;-58
2023/04/25 04:51:37;;;;;;;;;12.20;12.20;;;;;12.27;66.48;100601.63;5057496;28;45528;-59
2023/04/25 04:54:03;;;;;;;;;12.40;10.60;;;;;12.24;66.64;100602.91;5056473;28;46837;-59
2023/04/25 04:56:34;;;;;;;;;10.25;9.00;;;;;12.28;66.50;100601.38;5072279;28;45804;-59
2023/04/25 04:59:01;;;;;;;;;13.20;11.00;;;;;12.28;64.78;100608.81;5089209;27;45363;-60
2023/04/25 05:01:27;;;;;;;;;13.60;12.00;;;;;12.26;65.32;100619.16;5057365;28;45246;-58
2023/04/25 05:03:52;;;;;;;;;15.50;12.50;;;;;12.25;65.55;100625.75;5089212;27;46747;-59
2023/04/25 05:06:18;;;;;;;;;12.75;11.50;;;;;12.28;66.48;100622.56;5089757;27;45464;-59
2023/04/25 05:08:44;;;;;;;;;16.60;12.60;;;;;12.34;66.83;100629.91;5057074;28;45430;-59
2023/04/25 05:11:10;;;;;;;;;15.00;11.75;;;;;12.37;65.74;100626.69;4979912;28;45258;-60
2023/04/25 05:13:35;;;;;;;;;15.50;11.75;;;;;12.40;66.76;100626.25;4929294;28;46227;-59
2023/04/25 05:16:01;;;;;;;;;12.50;10.50;;;;;12.43;65.37;100630.47;4952906;28;46210;-60
2023/04/25 05:18:28;;;;;;;;;6.75;6.75;;;;;12.38;66.93;100635.81;4954912;28;45325;-60
2023/04/25 05:20:54;;;;;;;;;15.20;12.00;;;;;12.41;66.18;100649.09;4954948;28;45273;-60
2023/04/25 05:23:19;;;;;;;;;12.00;11.00;;;;;12.34;66.77;100643.69;4954615;28;45744;-59
2023/04/25 05:25:45;;;;;;;;;11.50;9.50;;;;;12.40;66.04;100659.28;4952921;28;45405;-59
2023/04/25 05:28:12;;;;;;;;;16.00;14.75;;;;;12.39;66.07;100665.81;4953093;28;45385;-59
2023/04/25 05:30:37;;;;;;;;;13.60;13.60;;;;;12.42;66.37;100659.88;5033730;28;45330;-59
2023/04/25 05:33:03;;;;;;;;;11.50;11.25;;;;;12.29;66.13;100654.50;5055631;28;46540;-59
2023/04/25 05:35:28;;;;;;;;;11.75;9.75;;;;;12.32;66.37;100651.28;5055091;28;45379;-60
2023/04/25 05:37:54;;;;;;;;;17.75;16.75;;;;;12.43;65.88;100682.75;5056325;28;45350;-60
2023/04/25 05:40:20;;;;;;;;;14.80;12.40;;;;;12.34;65.84;100690.47;5056382;28;45308;-60
2023/04/25 05:42:46;;;;;;;;;13.25;13.25;;;;;12.30;66.68;100692.81;5054528;28;47032;-60
2023/04/25 05:45:11;;;;;;;;;15.00;14.00;;;;;12.19;66.51;100675.13;5055939;28;45595;-60
2023/04/25 05:47:36;;;;;;;;;16.75;15.25;;;;;12.17;66.04;100688.25;5038200;28;45484;-60
2023/04/25 05:50:02;;;;;;;;;15.25;13.75;;;;;12.26;66.98;100705.34;5055637;28;45341;-59
2023/04/25 05:52:28;;;;;;;;;14.25;14.25;;;;;12.28;66.55;100707.88;5056320;28;45317;-61
2023/04/25 05:54:53;;;;;;;;;16.75;11.75;;;;;12.29;66.55;100704.91;5053871;28;45409;-59
2023/04/25 05:57:23;;;;;;;;;14.00;9.75;;;;;12.34;67.02;100712.47;5088343;27;45800;-59
2023/04/25 05:59:49;;;;;;;;;10.80;10.80;;;;;12.40;66.64;100713.47;5056464;28;45385;-60
2023/04/25 06:02:14;;;;;;;;;15.50;14.00;;;;;12.31;67.34;100710.16;5055933;28;46673;-60
2023/04/25 06:04:40;;;;;;;;;81.50;58.00;;;;;12.41;67.02;100718.75;5056036;28;45356;-61
2023/04/25 06:07:05;;;;;;;;;17.50;16.00;;;;;12.40;66.92;100730.00;5056576;28;45600;-59
2023/04/25 06:09:31;;;;;;;;;13.25;11.25;;;;;12.32;67.45;100711.84;5056351;28;45423;-60
2023/04/25 06:11:56;;;;;;;;;15.75;14.25;;;;;12.31;66.66;100711.00;5043733;28;45979;-59
2023/04/25 06:14:21;;;;;;;;;18.00;15.75;;;;;12.47;67.03;100726.13;5053146;28;45377;-59
2023/04/25 06:16:47;;;;;;;;;13.50;12.00;;;;;12.31;66.81;100711.00;5056313;28;45265;-59
2023/04/25 06:19:12;;;;;;;;;16.75;15.75;;;;;12.49;66.51;100728.63;5056344;28;45504;-60
2023/04/25 06:21:38;;;;;;;;;20.00;16.25;;;;;12.44;66.36;100729.31;5056090;28;46212;-60
2023/04/25 06:24:04;;;;;;;;;16.25;15.50;;;;;12.48;66.40;100732.44;5055323;28;45317;-59
2023/04/25 06:26:29;;;;;;;;;16.25;14.25;;;;;12.48;66.99;100729.69;5055735;28;45464;-59
2023/04/25 06:28:55;;;;;;;;;12.75;11.25;;;;;12.49;67.09;100728.63;5053097;28;45552;-59
2023/04/25 06:31:20;;;;;;;;;15.75;14.75;;;;;12.52;65.89;100741.09;4953347;28;46367;-60
2023/04/25 06:33:48;;;;;;;;;16.50;15.50;;;;;12.46;65.16;100727.19;4953544;28;45743;-60
2023/04/25 06:36:13;;;;;;;;;18.00;16.40;;;;;12.43;66.83;100732.31;4952454;28;45429;-59
2023/04/25 06:38:39;;;;;;;;;16.00;12.75;;;;;12.35;65.70;100741.69;4953434;28;45635;-59
2023/04/25 06:41:04;;;;;;;;;17.75;16.50;;;;;12.40;67.48;100738.25;4952090;28;47601;-59
2023/04/25 06:43:32;;;;;;;;;11.50;11.00;;;;;12.49;66.08;100730.56;4953043;28;45942;-59
2023/04/25 06:45:58;;;;;;;;;12.80;11.20;;;;;12.45;65.30;100730.16;4952511;28;45958;-59
2023/04/25 06:48:24;;;;;;;;;11.00;10.00;;;;;12.45;64.86;100736.50;4952061;28;45803;-59
2023/04/25 06:50:49;;;;;;;;;8.25;8.25;;;;;12.43;64.93;100740.56;4953051;28;45390;-59
2023/04/25 06:53:15;;;;;;;;;10.00;9.00;;;;;12.59;65.86;100751.00;4953273;28;45492;-59
2023/04/25 06:55:40;;;;;;;;;11.25;9.75;;;;;12.65;65.29;100753.94;4952733;28;45371;-62
2023/04/25 06:58:07;;;;;;;;;9.75;9.75;;;;;12.67;64.13;100760.91;4953391;28;45491;-59
2023/04/25 07:00:33;;;;;;;;;8.20;8.00;;;;;12.69;64.94;100767.00;4952694;28;46531;-59
2023/04/25 07:02:58;;;;;;;;;10.60;9.60;;;;;12.64;64.39;100768.78;4953238;28;45333;-59
2023/04/25 07:05:24;;;;;;;;;11.50;8.75;;;;;12.65;64.12;100767.69;4953201;28;45294;-60
2023/04/25 07:07:49;;;;;;;;;6.25;6.00;;;;;12.60;64.21;100762.88;4953402;28;45592;-60
2023/04/25 07:10:15;;;;;;;;;7.75;7.75;;;;;12.78;64.59;100777.72;4953155;28;46573;-60
2023/04/25 07:12:41;;;;;;;;;8.75;8.25;;;;;12.82;63.65;100777.06;4952676;28;45673;-60
2023/04/25 07:15:09;;;;;;;;;10.00;10.00;;;;;12.85;65.02;100776.63;4953488;28;45299;-60
2023/04/25 07:17:35;;;;;;;;;12.40;11.20;;;;;12.90;63.89;100778.69;4951973;28;45441;-60
2023/04/25 07:20:00;;;;;;;;;16.25;12.75;;;;;12.82;63.26;100796.31;4952709;28;46922;-60
2023/04/25 07:22:26;;;;;;;;;11.75;11.50;;;;;12.68;63.98;100792.88;4953144;28;45247;-60
2023/04/25 07:24:53;;;;;;;;;18.75;16.00;;;;;12.51;62.74;100778.81;4953135;28;45344;-60
2023/04/25 07:27:19;;;;;;;;;18.60;16.60;;;;;12.60;63.68;100791.22;4953507;28;45650;-60
2023/04/25 07:29:45;;;;;;;;;18.60;17.20;;;;;12.46;64.53;100787.75;4931328;28;46514;-59
2023/04/25 07:32:12;;;;;;;;;22.80;16.80;;;;;12.53;64.94;100793.19;4950024;28;45404;-60
2023/04/25 07:34:38;;;;;;;;;18.20;16.40;;;;;12.56;63.84;100805.66;4952888;28;45382;-60
2023/04/25 07:37:04;;;;;;;;;14.40;12.80;;;;;12.48;65.07;100806.78;4951441;28;45512;-61
2023/04/25 07:39:31;;;;;;;;;19.20;18.20;;;;;12.44;63.30;100803.63;4952549;28;45475;-61
2023/04/25 07:41:58;;;;;;;;;22.50;19.25;;;;;12.40;63.09;100812.56;4952885;28;45323;-61
2023/04/25 07:44:24;;;;;;;;;22.20;18.60;;;;;12.30;62.57;100813.91;4952524;28;45397;-61
2023/04/25 07:46:49;;;;;;;;;21.75;18.50;;;;;12.08;61.16;100829.91;4952870;28;45428;-59
2023/04/25 07:49:15;;;;;;;;;24.75;23.25;;;;;11.98;62.04;100818.50;4961588;28;45341;-60
2023/04/25 07:51:43;;;;;;;;;23.75;17.50;;;;;12.09;61.47;100833.50;4981958;28;45271;-60
2023/04/25 07:54:09;;;;;;;;;20.00;19.20;;;;;11.88;61.16;100833.56;4951235;28;45239;-60
2023/04/25 07:56:34;;;;;;;;;26.75;21.50;;;;;11.89;60.15;100845.41;4951361;28;45379;-60
2023/04/25 07:59:00;;;;;;;;;20.00;18.75;;;;;11.91;60.92;100840.53;4951946;28;46242;-60
2023/04/25 08:01:26;;;;;;;;;24.50;21.75;;;;;12.00;62.11;100850.22;4952581;28;45274;-60
2023/04/25 08:03:52;;;;;;;;;19.00;18.20;;;;;12.19;62.15;100839.38;4952372;28;45262;-60
2023/04/25 08:06:18;;;;;;;;;21.00;18.00;;;;;12.30;60.68;100851.59;4950959;28;45618;-59
2023/04/25 08:08:43;;;;;;;;;20.25;15.50;;;;;12.49;60.63;100855.25;4952167;28;45350;-60
2023/04/25 08:11:09;;;;;;;;;20.75;18.75;;;;;12.69;60.99;100871.66;4950641;28;45345;-60
2023/04/25 08:13:34;;;;;;;;;18.75;15.75;;;;;12.71;57.82;100877.78;4952618;28;45749;-59
2023/04/25 08:16:00;;;;;;;;;16.00;16.00;;;;;12.70;57.59;100889.84;4951948;28;45280;-60
2023/04/25 08:18:25;;;;;;;;;18.25;15.00;;;;;12.52;58.53;100882.38;4952612;28;45855;-60
2023/04/25 08:20:51;;;;;;;;;17.00;12.50;;;;;12.61;57.17;100891.22;4954063;28;45564;-59
2023/04/25 08:23:16;;;;;;;;;21.00;17.75;;;;;12.71;59.79;100894.28;4955000;28;45446;-59
2023/04/25 08:25:42;;;;;;;;;21.00;19.00;;;;;12.94;60.67;100892.03;4955204;28;45600;-59
2023/04/25 08:28:07;;;;;;;;;24.75;18.50;;;;;12.96;57.47;100892.66;4954879;28;46472;-61
2023/04/25 08:30:33;;;;;;;;;25.00;22.25;;;;;12.97;59.88;100895.16;4937056;28;45519;-60
2023/04/25 08:32:58;;;;;;;;;16.50;15.75;;;;;12.87;58.28;100894.84;4954992;28;45461;-60
2023/04/25 08:35:24;;;;;;;;;23.75;16.00;;;;;12.92;58.72;100896.91;4950781;28;45585;-60
2023/04/25 08:37:50;;;;;;;;;19.00;16.00;;;;;13.01;59.66;100906.56;4970066;27;46245;-60
2023/04/25 08:40:15;;;;;;;;;15.80;13.60;;;;;12.88;58.28;100894.59;4952921;28;45394;-59
2023/04/25 08:42:41;;;;;;;;;12.25;11.50;;;;;12.88;57.78;100905.63;4981822;28;45743;-60
2023/04/25 08:45:08;;;;;;;;;17.60;15.60;;;;;13.04;59.37;100917.16;4967447;28;45793;-60
2023/04/25 08:47:37;;;;;;;;;18.20;16.60;;;;;12.92;58.17;100886.72;4951374;28;46158;-59
2023/04/25 08:50:02;;;;;;;;;18.80;14.60;;;;;13.00;58.38;100911.25;4973407;28;45406;-60
2023/04/25 08:52:30;;;;;;;;;14.75;14.75;;;;;12.75;56.01;100913.97;4973553;28;45422;-57
2023/04/25 08:54:56;;;;;;;;;16.80;16.60;;;;;12.79;59.17;100911.63;4965089;28;45600;-59
2023/04/25 08:57:21;;;;;;;;;19.00;16.25;;;;;12.77;60.20;100919.25;5011243;28;45607;-61
2023/04/25 08:59:48;;;;;;;;;17.50;15.75;;;;;12.75;58.95;100927.75;4973009;28;45274;-61
2023/04/25 09:02:16;;;;;;;;;16.80;15.20;;;;;12.64;59.67;100939.47;4972424;28;45347;-63
2023/04/25 09:04:43;;;;;;;;;16.40;16.40;;;;;12.75;57.93;100938.75;4973380;28;45428;-61
2023/04/25 09:07:08;;;;;;;;;22.60;12.20;;;;;12.87;61.24;100942.50;4972077;28;45677;-60
2023/04/25 09:09:34;;;;;;;;;17.00;14.50;;;;;13.02;59.54;100946.84;4967979;28;45500;-60
2023/04/25 09:12:01;;;;;;;;;15.75;15.75;;;;;13.07;60.69;100948.94;4989052;27;45459;-59
2023/04/25 09:14:27;;;;;;;;;16.40;15.20;;;;;13.16;60.19;100953.09;4984791;28;45711;-60
2023/04/25 09:16:56;;;;;;;;;17.40;16.80;;;;;13.06;56.42;100959.09;4984868;28;47243;-60
2023/04/25 09:19:35;;;;;;;;;16.00;14.40;;;;;12.92;56.47;100968.53;4953204;28;45488;-61
2023/04/25 09:22:02;;;;;;;;;20.80;17.40;;;;;12.88;58.74;100965.38;4961714;28;45405;-60
2023/04/25 09:24:44;;;;;;;;;19.20;14.20;;;;;13.05;57.22;100968.44;4954189;28;45356;-59
2023/04/25 09:27:10;;;;;;;;;13.20;13.20;;;;;12.85;56.64;100974.06;4953894;28;45643;-64
2023/04/25 09:29:37;;;;;;;;;17.40;13.40;;;;;12.78;57.63;100976.88;4924368;28;45573;-60
2023/04/25 09:32:19;;;;;;;;;20.20;17.40;;;;;12.92;56.26;100987.81;5003620;28;45519;-61
2023/04/25 09:34:50;;;;;;;;;17.60;14.40;;;;;13.07;58.01;100993.03;5052571;28;45416;-59
2023/04/25 09:37:20;;;;;;;;;17.20;15.60;;;;;13.15;58.96;101001.84;4970833;28;45829;-60
2023/04/25 09:39:49;;;;;;;;;13.60;12.40;;;;;13.19;57.80;100993.16;4952687;28;45419;-60
2023/04/25 09:42:15;;;;;;;;;12.40;11.40;;;;;13.10;58.79;100993.44;4955512;28;45424;-62
2023/04/25 09:44:45;;;;;;;;;16.40;13.80;;;;;13.02;57.48;100994.53;4953513;28;45451;-60
2023/04/25 09:47:15;;;;;;;;;16.00;13.40;;;;;13.15;57.99;100993.56;4953393;28;45828;-61
2023/04/25 09:49:42;;;;;;;;;9.40;5.40;;;;;13.30;57.47;100992.44;5034785;28;45369;-59
2023/04/25 09:52:07;;;;;;;;;15.20;12.20;;;;;13.22;54.62;101000.97;5055703;28;45575;-59
2023/04/25 09:54:33;;;;;;;;;9.75;8.75;;;;;12.88;54.77;100998.44;5025016;28;45310;-61
2023/04/25 09:56:59;;;;;;;;;10.75;10.00;;;;;12.97;57.10;101013.63;5003797;28;46398;-59
2023/04/25 09:59:24;;;;;;;;;18.25;16.00;;;;;13.12;57.82;101012.47;4988345;28;45339;-60
2023/04/25 10:01:50;;;;;;;;;17.25;15.50;;;;;13.17;58.77;101009.06;4987682;28;45395;-58
2023/04/25 10:04:20;;;;;;;;;13.40;10.00;;;;;13.17;58.09;101007.16;4973051;28;45571;-59
2023/04/25 10:06:46;;;;;;;;;17.60;14.40;;;;;13.21;55.73;101010.28;4952186;28;48119;-59
2023/04/25 10:09:12;;;;;;;;;14.00;12.50;;;;;13.28;54.55;101011.09;4951987;28;45472;-62
2023/04/25 10:11:37;;;;;;;;;19.40;13.20;;;;;13.23;55.84;101017.28;4953349;28;45838;-61
2023/04/25 10:14:03;;;;;;;;;14.75;11.50;;;;;13.11;53.33;101006.13;4951478;28;45598;-60
2023/04/25 10:16:29;;;;;;;;;16.00;12.00;;;;;13.26;57.35;101005.81;4952513;28;46413;-61
2023/04/25 10:18:54;;;;;;;;;11.00;10.50;;;;;13.55;56.84;101017.28;4954421;28;45503;-59
2023/04/25 10:21:20;;;;;;;;;13.75;12.00;;;;;13.76;56.60;101009.66;4949502;28;45471;-59
2023/04/25 10:23:46;;;;;;;;;16.50;10.25;;;;;13.79;54.75;101005.59;4953145;28;45327;-60
2023/04/25 10:26:12;;;;;;;;;11.75;9.50;;;;;13.76;53.14;101017.94;4992119;28;45433;-61
2023/04/25 10:29:00;;;;;;;;;17.00;14.20;;;;;13.90;54.28;101010.38;4970879;28;45439;-59
2023/04/25 10:31:26;;;;;;;;;11.40;10.00;;;;;14.04;54.55;101011.06;4958517;28;45271;-58
2023/04/25 10:33:52;;;;;;;;;19.75;13.75;;;;;14.03;55.78;101014.91;4950632;28;45402;-60
2023/04/25 10:36:18;;;;;;;;;12.75;11.00;;;;;13.94;56.03;101019.88;4935009;28;45990;-60
2023/04/25 10:38:44;;;;;;;;;14.00;12.00;;;;;14.00;55.65;101023.66;4933700;28;45949;-60
2023/04/25 10:41:11;;;;;;;;;12.40;10.40;;;;;13.92;54.78;101023.94;4999975;28;45410;-59
2023/04/25 10:43:45;;;;;;;;;14.60;11.40;;;;;13.84;53.48;101008.53;4969583;28;45568;-59
2023/04/25 10:46:30;;;;;;;;;13.80;13.80;;;;;14.02;56.51;101015.13;4970598;28;45701;-60
2023/04/25 10:48:57;;;;;;;;;13.20;11.60;;;;;14.13;56.82;101017.16;4970607;28;45336;-60
2023/04/25 10:51:25;;;;;;;;;12.60;11.60;;;;;14.26;55.18;101026.34;4970849;28;45423;-59
2023/04/25 10:54:04;;;;;;;;;9.20;6.40;;;;;14.25;54.97;101027.44;4987612;28;45388;-60
2023/04/25 10:56:31;;;;;;;;;9.80;6.60;;;;;14.10;54.08;101029.47;4960716;28;46569;-59
2023/04/25 10:59:23;;;;;;;;;12.40;9.60;;;;;14.00;54.83;101034.69;4972009;28;45355;-59
2023/04/25 11:01:51;;;;;;;;;9.20;8.20;;;;;13.94;53.64;101036.44;4968307;28;45388;-59
2023/04/25 11:04:20;;;;;;;;;6.60;5.80;;;;;13.95;55.20;101040.06;4956061;28;45396;-60
2023/04/25 11:07:10;;;;;;;;;8.00;4.80;;;;;13.93;54.51;101040.28;4952271;28;45799;-60
2023/04/25 11:09:36;;;;;;;;;5.80;4.80;;;;;13.85;52.61;101028.69;4975105;28;45410;-60
2023/04/25 11:12:01;;;;;;;;;6.80;6.80;;;;;13.98;54.66;101030.47;4970817;28;45350;-59